createdAt,value
2019-03-02T00:00:23.966Z,26.55
2019-03-02T00:03:07.440Z,28.60
2019-03-02T00:05:38.925Z,26.80
2019-03-02T00:08:13.459Z,29.20
2019-03-02T00:10:48.349Z,32.63
2019-03-02T00:13:18.541Z,29.35
2019-03-02T00:15:48.695Z,31.80
2019-03-02T00:18:19.882Z,28.05
2019-03-02T00:20:55.630Z,30.35
2019-03-02T00:23:29.833Z,29.45
2019-03-02T00:26:06.245Z,27.67
2019-03-02T00:28:36.500Z,31.17
2019-03-02T00:31:08.998Z,29.32
2019-03-02T00:33:42.496Z,32.65
2019-03-02T00:36:19.398Z,28.35
2019-03-02T00:38:48.432Z,30.10
2019-03-02T00:41:31.006Z,31.50
2019-03-02T00:44:09.171Z,29.23
2019-03-02T00:46:39.342Z,31.37
2019-03-02T00:49:10.665Z,30.97
2019-03-02T00:51:42.693Z,33.67
2019-03-02T00:54:14.779Z,32.28
2019-03-02T00:56:57.247Z,30.65
2019-03-02T00:59:39.403Z,30.27
2019-03-02T01:02:08.787Z,27.07
2019-03-02T01:04:41.741Z,28.73
2019-03-02T01:07:12.219Z,31.93
2019-03-02T01:09:43.613Z,28.02
2019-03-02T01:12:16.744Z,31.57
2019-03-02T01:14:47.880Z,25.65
2019-03-02T01:17:19.205Z,26.55
2019-03-02T01:19:52.701Z,28.05
2019-03-02T01:22:22.481Z,29.67
2019-03-02T01:24:55.613Z,28.00
2019-03-02T01:27:27.386Z,29.40
2019-03-02T01:30:00.714Z,28.50
2019-03-02T01:32:34.014Z,28.38
2019-03-02T01:35:04.502Z,28.45
2019-03-02T01:37:36.078Z,27.87
2019-03-02T01:40:10.119Z,25.90
2019-03-02T01:42:45.260Z,26.57
2019-03-02T01:45:15.903Z,25.17
2019-03-02T01:47:51.146Z,28.05
2019-03-02T01:50:21.215Z,26.77
2019-03-02T01:52:54.470Z,25.72
2019-03-02T01:55:27.884Z,25.48
2019-03-02T01:57:58.526Z,23.57
2019-03-02T02:00:30.626Z,23.75
2019-03-02T02:03:03.662Z,21.45
2019-03-02T02:05:35.851Z,22.62
2019-03-02T02:08:07.171Z,23.25
2019-03-02T02:10:39.969Z,22.50
2019-03-02T02:13:11.605Z,25.60
2019-03-02T02:15:41.881Z,23.62
2019-03-02T02:18:13.519Z,22.22
2019-03-02T02:20:46.890Z,23.42
2019-03-02T02:23:20.435Z,24.02
2019-03-02T02:25:53.579Z,24.65
2019-03-02T02:28:29.112Z,25.88
2019-03-02T02:31:01.905Z,25.00
2019-03-02T02:33:31.572Z,23.50
2019-03-02T02:36:04.369Z,23.55
2019-03-02T02:38:36.059Z,22.67
2019-03-02T02:41:07.808Z,24.18
2019-03-02T02:43:38.476Z,23.18
2019-03-02T02:46:08.637Z,23.65
2019-03-02T02:48:41.387Z,23.07
2019-03-02T02:51:14.385Z,21.37
2019-03-02T02:53:46.922Z,22.32
2019-03-02T02:56:19.942Z,22.42
2019-03-02T02:58:56.155Z,22.87
2019-03-02T03:01:33.760Z,22.42
2019-03-02T03:04:04.299Z,22.40
2019-03-02T03:06:35.804Z,23.60
2019-03-02T03:09:20.163Z,23.15
2019-03-02T03:11:50.315Z,21.07
2019-03-02T03:14:21.582Z,20.20
2019-03-02T03:16:54.207Z,24.02
2019-03-02T03:19:31.015Z,24.67
2019-03-02T03:22:07.374Z,21.70
2019-03-02T03:24:39.965Z,22.85
2019-03-02T03:27:13.334Z,23.32
2019-03-02T03:29:44.392Z,22.22
2019-03-02T03:32:16.185Z,22.22
2019-03-02T03:34:49.255Z,21.90
2019-03-02T03:37:21.350Z,22.22
2019-03-02T03:39:53.162Z,23.47
2019-03-02T03:42:24.883Z,26.07
2019-03-02T03:44:59.764Z,22.30
2019-03-02T03:47:34.082Z,22.22
2019-03-02T03:50:09.304Z,24.30
2019-03-02T03:52:37.915Z,24.10
2019-03-02T03:55:11.488Z,25.40
2019-03-02T03:57:44.652Z,25.82
2019-03-02T04:00:19.574Z,24.05
2019-03-02T04:02:51.617Z,21.17
2019-03-02T04:05:21.860Z,27.52
2019-03-02T04:07:52.078Z,23.87
2019-03-02T04:10:25.956Z,23.50
2019-03-02T04:12:54.147Z,22.37
2019-03-02T04:15:26.075Z,22.60
2019-03-02T04:17:57.479Z,24.92
2019-03-02T04:20:37.719Z,24.85
2019-03-02T04:23:10.581Z,24.77
2019-03-02T04:25:42.386Z,25.27
2019-03-02T04:28:15.844Z,24.23
2019-03-02T04:30:47.616Z,21.48
2019-03-02T04:33:18.278Z,25.17
2019-03-02T04:35:50.380Z,23.70
2019-03-02T04:38:21.379Z,24.57
2019-03-02T04:40:51.522Z,27.65
2019-03-02T04:43:23.721Z,25.60
2019-03-02T04:45:56.281Z,22.98
2019-03-02T04:48:26.455Z,23.32
2019-03-02T04:50:59.589Z,26.07
2019-03-02T04:53:32.994Z,24.57
2019-03-02T04:56:09.458Z,23.73
2019-03-02T04:58:43.621Z,24.55
2019-03-02T05:01:14.328Z,23.65
2019-03-02T05:03:58.073Z,23.55
2019-03-02T05:06:28.923Z,25.45
2019-03-02T05:09:01.929Z,24.32
2019-03-02T05:11:35.467Z,26.20
2019-03-02T05:16:40.770Z,23.98
2019-03-02T05:19:13.632Z,26.10
2019-03-02T05:21:44.457Z,24.85
2019-03-02T05:24:14.999Z,26.48
2019-03-02T05:26:47.533Z,23.05
2019-03-02T05:29:19.863Z,26.05
2019-03-02T05:31:50.860Z,26.10
2019-03-02T05:34:28.281Z,24.65
2019-03-02T05:37:02.895Z,27.85
2019-03-02T05:39:32.722Z,26.02
2019-03-02T05:42:03.220Z,25.50
2019-03-02T05:44:33.663Z,25.88
2019-03-02T05:47:04.395Z,22.13
2019-03-02T05:49:36.085Z,24.25
2019-03-02T05:52:08.842Z,25.35
2019-03-02T05:54:42.432Z,26.00
2019-03-02T05:57:13.585Z,26.75
2019-03-02T05:59:47.445Z,24.30
2019-03-02T06:02:19.737Z,23.27
2019-03-02T06:04:53.657Z,22.50
2019-03-02T06:07:29.780Z,25.97
2019-03-02T06:10:01.300Z,26.48
2019-03-02T06:12:31.816Z,25.37
2019-03-02T06:15:04.053Z,26.70
2019-03-02T06:17:35.001Z,26.30
2019-03-02T06:20:05.622Z,25.90
2019-03-02T06:25:19.877Z,24.40
2019-03-02T06:27:49.796Z,25.65
2019-03-02T06:30:21.834Z,24.75
2019-03-02T06:32:52.837Z,22.95
2019-03-02T06:35:24.980Z,22.30
2019-03-02T06:38:06.789Z,23.65
2019-03-02T06:41:00.272Z,26.75
2019-03-02T06:43:32.097Z,24.52
2019-03-02T06:46:44.598Z,24.82
2019-03-02T06:50:04.770Z,25.35
2019-03-02T06:52:35.839Z,23.10
2019-03-02T06:55:28.119Z,22.95
2019-03-02T06:58:11.957Z,24.37
2019-03-02T07:00:45.584Z,22.70
2019-03-02T07:03:28.460Z,23.95
2019-03-02T07:06:04.269Z,23.47
2019-03-02T07:08:36.358Z,22.75
2019-03-02T07:11:07.963Z,22.62
2019-03-02T07:13:41.680Z,23.60
2019-03-02T07:16:20.056Z,21.85
2019-03-02T07:22:41.600Z,24.50
2019-03-02T07:33:23.011Z,21.95
2019-03-02T07:36:02.183Z,21.95
2019-03-02T07:39:15.729Z,20.35
2019-03-02T07:41:54.213Z,20.55
2019-03-02T07:44:27.958Z,23.25
2019-03-02T07:47:03.607Z,21.87
2019-03-02T07:54:18.587Z,20.32
2019-03-02T08:07:11.521Z,21.95
2019-03-02T08:10:06.506Z,20.95
2019-03-02T08:12:41.444Z,22.07
2019-03-02T08:15:27.868Z,19.20
2019-03-02T08:25:50.975Z,18.48
2019-03-02T08:28:22.965Z,20.08
2019-03-02T08:34:56.140Z,21.93
2019-03-02T08:37:29.924Z,19.02
2019-03-02T08:40:01.909Z,19.73
2019-03-02T08:42:32.095Z,18.00
2019-03-02T08:45:53.939Z,19.15
2019-03-02T08:48:26.782Z,18.20
2019-03-02T08:50:56.949Z,17.57
2019-03-02T08:53:27.408Z,17.37
2019-03-02T08:56:00.513Z,17.70
2019-03-02T08:58:43.323Z,16.70
2019-03-02T09:01:18.708Z,15.90
2019-03-02T09:03:51.797Z,15.58
2019-03-02T09:06:42.657Z,16.35
2019-03-02T09:10:03.706Z,15.83
2019-03-02T09:13:01.275Z,15.75
2019-03-02T09:20:03.965Z,17.82
2019-03-02T09:22:36.558Z,17.65
2019-03-02T09:25:19.992Z,17.25
2019-03-02T09:28:46.855Z,15.38
2019-03-02T09:31:54.191Z,16.23
2019-03-02T09:34:37.080Z,16.90
2019-03-02T09:37:10.431Z,16.90
2019-03-02T09:39:51.539Z,15.32
2019-03-02T09:42:21.130Z,16.82
2019-03-02T10:07:25.193Z,16.37
2019-03-02T10:13:51.093Z,16.35
2019-03-02T10:16:25.687Z,14.30
2019-03-02T10:19:07.001Z,17.42
2019-03-02T10:21:39.831Z,16.00
2019-03-02T10:24:13.579Z,17.15
2019-03-02T10:26:46.222Z,15.30
2019-03-02T10:29:19.085Z,16.23
2019-03-02T10:31:59.143Z,15.40
2019-03-02T10:37:43.753Z,16.45
2019-03-02T10:40:19.119Z,16.85
2019-03-02T10:42:59.816Z,16.90
2019-03-02T10:45:52.010Z,15.85
2019-03-02T10:48:22.771Z,14.70
2019-03-02T10:50:55.889Z,16.12
2019-03-02T10:53:27.496Z,16.00
2019-03-02T10:56:12.054Z,15.78
2019-03-02T10:59:04.148Z,14.35
2019-03-02T11:01:43.604Z,15.70
2019-03-02T11:04:48.993Z,16.82
2019-03-02T11:07:54.589Z,16.20
2019-03-02T11:10:59.948Z,14.47
2019-03-02T11:13:51.833Z,15.38
2019-03-02T11:16:44.601Z,15.72
2019-03-02T11:19:38.977Z,17.98
2019-03-02T11:22:38.577Z,17.00
2019-03-02T11:25:23.065Z,15.85
2019-03-02T11:28:10.931Z,14.05
2019-03-02T11:31:02.826Z,13.78
2019-03-02T11:33:46.686Z,12.73
2019-03-02T11:36:35.509Z,14.40
2019-03-02T11:39:28.359Z,12.82
2019-03-02T11:42:10.368Z,16.73
2019-03-02T11:45:02.232Z,15.38
2019-03-02T11:47:58.325Z,14.07
2019-03-02T11:51:03.349Z,14.60
2019-03-02T11:53:53.155Z,15.28
2019-03-02T11:56:46.465Z,13.68
2019-03-02T11:59:45.307Z,16.27
2019-03-02T12:02:35.357Z,14.18
2019-03-02T12:05:25.053Z,14.03
2019-03-02T12:08:11.243Z,16.15
2019-03-02T12:10:51.374Z,15.95
2019-03-02T12:13:34.849Z,14.75
2019-03-02T12:16:26.444Z,14.65
2019-03-02T12:19:20.046Z,14.35
2019-03-02T12:22:07.167Z,14.90
2019-03-02T12:24:58.482Z,14.10
2019-03-02T12:27:55.075Z,8.40
2019-03-02T12:30:42.707Z,11.28
2019-03-02T12:33:38.198Z,8.23
2019-03-02T12:36:17.850Z,9.28
2019-03-02T12:38:55.057Z,9.50
2019-03-02T12:41:48.948Z,9.60
2019-03-02T12:44:32.330Z,9.13
2019-03-02T12:47:24.098Z,8.83
2019-03-02T12:50:13.261Z,9.28
2019-03-02T12:53:05.868Z,7.50
2019-03-02T12:55:56.972Z,7.25
2019-03-02T12:58:37.613Z,7.87
2019-03-02T13:01:20.072Z,7.15
2019-03-02T13:04:10.505Z,6.90
2019-03-02T13:07:03.582Z,7.55
2019-03-02T13:09:55.927Z,6.87
2019-03-02T13:12:39.150Z,7.47
2019-03-02T13:15:42.249Z,6.70
2019-03-02T13:18:25.946Z,8.00
2019-03-02T13:21:16.222Z,7.75
2019-03-02T13:24:08.615Z,6.28
2019-03-02T13:26:50.188Z,7.37
2019-03-02T13:29:45.231Z,8.68
2019-03-02T13:32:56.015Z,7.70
2019-03-02T13:35:47.089Z,8.20
2019-03-02T13:38:39.510Z,7.60
2019-03-02T13:41:31.689Z,6.78
2019-03-02T13:44:21.346Z,7.67
2019-03-02T13:47:10.574Z,8.85
2019-03-02T13:50:10.008Z,8.55
2019-03-02T13:57:01.124Z,7.30
2019-03-02T14:00:03.626Z,9.18
2019-03-02T14:03:10.660Z,7.30
2019-03-02T14:05:55.836Z,6.58
2019-03-02T14:08:39.775Z,7.30
2019-03-02T14:11:39.684Z,8.03
2019-03-02T14:14:31.739Z,8.63
2019-03-02T14:17:24.263Z,10.40
2019-03-02T14:20:20.652Z,8.15
2019-03-02T14:23:02.936Z,8.90
2019-03-02T14:25:56.178Z,10.38
2019-03-02T14:28:54.762Z,8.18
2019-03-02T14:31:48.888Z,8.65
2019-03-02T14:34:36.516Z,9.25
2019-03-02T14:37:13.897Z,7.50
2019-03-02T14:39:58.871Z,8.80
2019-03-02T14:42:58.729Z,7.10
2019-03-02T14:45:34.761Z,5.35
2019-03-02T14:48:27.258Z,7.60
2019-03-02T14:51:20.777Z,8.08
2019-03-02T14:54:09.213Z,7.67
2019-03-02T14:56:53.901Z,6.75
2019-03-02T14:59:39.228Z,8.50
2019-03-02T15:02:28.174Z,8.80
2019-03-02T15:05:20.159Z,7.53
2019-03-02T15:08:01.191Z,7.10
2019-03-02T15:10:53.506Z,8.20
2019-03-02T15:13:42.669Z,6.70
2019-03-02T15:16:26.156Z,6.55
2019-03-02T15:19:15.639Z,6.08
2019-03-02T15:22:08.228Z,6.50
2019-03-02T15:24:56.545Z,5.90
2019-03-02T15:27:40.456Z,6.72
2019-03-02T15:30:29.192Z,8.33
2019-03-02T15:33:19.271Z,6.65
2019-03-02T15:36:15.501Z,6.37
2019-03-02T15:39:16.662Z,6.12
2019-03-02T15:42:13.901Z,6.67
2019-03-02T15:44:50.781Z,6.60
2019-03-02T15:47:47.409Z,6.87
2019-03-02T15:50:37.287Z,6.60
2019-03-02T15:53:32.720Z,6.40
2019-03-02T15:56:23.405Z,5.40
2019-03-02T15:59:16.448Z,6.45
2019-03-02T16:02:19.135Z,9.28
2019-03-02T16:05:12.457Z,5.97
2019-03-02T16:08:05.143Z,5.20
2019-03-02T16:10:53.655Z,7.97
2019-03-02T16:13:50.139Z,5.22
2019-03-02T16:16:42.892Z,5.45
2019-03-02T16:19:52.961Z,5.17
2019-03-02T16:22:37.688Z,6.25
2019-03-02T16:28:21.911Z,6.03
2019-03-02T16:31:28.746Z,5.35
2019-03-02T16:34:12.635Z,5.42
2019-03-02T16:37:00.494Z,5.00
2019-03-02T16:39:42.770Z,6.20
2019-03-02T16:42:20.455Z,5.42
2019-03-02T16:44:58.907Z,5.08
2019-03-02T16:47:44.976Z,6.00
2019-03-02T16:50:35.639Z,4.87
2019-03-02T16:53:39.764Z,5.75
2019-03-02T16:56:44.545Z,6.10
2019-03-02T16:59:45.334Z,4.95
2019-03-02T17:02:34.833Z,3.67
2019-03-02T17:05:14.679Z,4.95
2019-03-02T17:08:10.011Z,4.42
2019-03-02T17:11:01.004Z,4.22
2019-03-02T17:13:51.831Z,4.22
2019-03-02T17:16:47.000Z,4.70
2019-03-02T17:19:36.178Z,3.30
2019-03-02T17:22:32.481Z,4.80
2019-03-02T17:25:13.551Z,4.53
2019-03-02T17:28:04.763Z,5.58
2019-03-02T17:30:58.203Z,3.83
2019-03-02T17:33:54.144Z,4.15
2019-03-02T17:36:41.625Z,4.08
2019-03-02T17:39:39.356Z,5.80
2019-03-02T17:42:28.097Z,4.42
2019-03-02T17:45:21.204Z,4.10
2019-03-02T17:48:05.035Z,4.80
2019-03-02T17:50:45.579Z,4.83
2019-03-02T17:53:29.326Z,4.80
2019-03-02T17:56:23.109Z,5.15
2019-03-02T17:59:11.548Z,5.95
2019-03-02T18:02:05.017Z,4.75
2019-03-02T18:04:53.313Z,4.78
2019-03-02T18:07:38.605Z,4.78
2019-03-02T18:10:29.602Z,4.75
2019-03-02T18:13:09.692Z,6.00
2019-03-02T18:16:05.850Z,5.20
2019-03-02T18:18:36.533Z,4.92
2019-03-02T18:21:07.979Z,5.12
2019-03-02T18:23:39.817Z,4.97
2019-03-02T18:26:11.214Z,5.28
2019-03-02T18:28:41.637Z,7.17
2019-03-02T18:31:16.076Z,3.47
2019-03-02T18:33:56.150Z,5.65
2019-03-02T18:36:27.954Z,4.47
2019-03-02T18:38:58.183Z,3.70
2019-03-02T18:41:29.020Z,8.70
2019-03-02T18:44:02.603Z,5.85
2019-03-02T18:46:33.241Z,4.65
2019-03-02T18:49:23.437Z,2.75
2019-03-02T18:52:26.427Z,4.08
2019-03-02T18:54:56.601Z,2.52
2019-03-02T18:57:28.508Z,3.00
2019-03-02T19:00:08.270Z,4.45
2019-03-02T19:02:44.096Z,4.22
2019-03-02T19:05:41.320Z,3.50
2019-03-02T19:08:18.816Z,3.27
2019-03-02T19:11:02.107Z,3.90
2019-03-02T19:13:32.773Z,3.20
2019-03-02T19:16:03.036Z,3.05
2019-03-02T19:18:33.234Z,3.85
2019-03-02T19:21:03.419Z,3.40
2019-03-02T19:23:33.640Z,2.85
2019-03-02T19:26:04.069Z,3.65
2019-03-02T19:28:36.034Z,3.45
2019-03-02T19:31:06.244Z,4.15
2019-03-02T19:33:37.770Z,3.90
2019-03-02T19:36:07.944Z,3.95
2019-03-02T19:38:38.097Z,4.35
2019-03-02T19:41:09.239Z,3.75
2019-03-02T19:43:42.730Z,2.87
2019-03-02T19:46:14.116Z,4.20
2019-03-02T19:48:44.333Z,3.58
2019-03-02T19:51:15.272Z,3.27
2019-03-02T19:53:45.889Z,5.17
2019-03-02T19:56:16.902Z,3.22
2019-03-02T19:58:47.890Z,3.67
2019-03-02T20:01:18.129Z,3.40
2019-03-02T20:03:50.009Z,3.35
2019-03-02T20:06:21.503Z,3.85
2019-03-02T20:08:53.047Z,4.12
2019-03-02T20:11:25.439Z,3.80
2019-03-02T20:13:55.864Z,3.60
2019-03-02T20:16:27.919Z,3.72
2019-03-02T20:18:59.571Z,3.80
2019-03-02T20:21:30.890Z,3.98
2019-03-02T20:24:01.507Z,3.85
2019-03-02T20:26:34.149Z,3.40
2019-03-02T20:29:04.677Z,3.33
2019-03-02T20:31:35.989Z,5.08
2019-03-02T20:34:06.242Z,3.50
2019-03-02T20:36:37.614Z,3.37
2019-03-02T20:39:34.710Z,4.00
2019-03-02T20:42:05.155Z,3.50
2019-03-02T20:44:45.615Z,4.58
2019-03-02T20:47:15.913Z,3.33
2019-03-02T20:49:46.109Z,4.00
2019-03-02T20:52:18.423Z,5.40
2019-03-02T20:54:51.215Z,2.98
2019-03-02T20:57:25.688Z,3.30
2019-03-02T20:59:57.625Z,4.28
2019-03-02T21:02:28.746Z,4.20
2019-03-02T21:05:02.451Z,2.98
2019-03-02T21:07:32.610Z,3.40
2019-03-02T21:10:03.251Z,2.80
2019-03-02T21:12:33.847Z,3.62
2019-03-02T21:15:06.333Z,2.77
2019-03-02T21:17:38.396Z,2.67
2019-03-02T21:20:14.815Z,2.08
2019-03-02T21:22:45.276Z,3.22
2019-03-02T21:25:19.466Z,2.72
2019-03-02T21:27:51.542Z,2.95
2019-03-02T21:30:22.960Z,2.12
2019-03-02T21:32:55.533Z,3.30
2019-03-02T21:35:27.054Z,2.70
2019-03-02T21:37:58.200Z,3.37
2019-03-02T21:40:33.311Z,3.00
2019-03-02T21:43:03.594Z,2.37
2019-03-02T21:45:33.830Z,2.40
2019-03-02T21:48:04.896Z,2.05
2019-03-02T21:50:35.188Z,2.22
2019-03-02T21:53:06.019Z,1.95
2019-03-02T21:55:37.529Z,1.40
2019-03-02T21:58:09.739Z,2.22
2019-03-02T22:00:42.996Z,2.20
2019-03-02T22:03:13.537Z,2.35
2019-03-02T22:05:44.258Z,2.75
2019-03-02T22:08:15.032Z,2.25
2019-03-02T22:10:52.451Z,1.70
2019-03-02T22:13:22.696Z,1.90
2019-03-02T22:15:53.040Z,1.50
2019-03-02T22:18:24.771Z,1.80
2019-03-02T22:20:55.248Z,2.02
2019-03-02T22:23:27.178Z,1.45
2019-03-02T22:26:02.044Z,1.42
2019-03-02T22:28:34.775Z,1.85
2019-03-02T22:31:05.862Z,2.17
2019-03-02T22:33:38.701Z,1.45
2019-03-02T22:36:09.030Z,1.30
2019-03-02T22:38:40.863Z,1.40
2019-03-02T22:41:12.857Z,2.02
2019-03-02T22:43:44.464Z,1.60
2019-03-02T22:46:14.618Z,1.77
2019-03-02T22:48:45.161Z,1.70
2019-03-02T22:51:17.943Z,1.60
2019-03-02T22:53:50.199Z,1.70
2019-03-02T22:56:22.075Z,1.98
2019-03-02T22:58:51.339Z,1.70
2019-03-02T23:01:38.868Z,2.70
2019-03-02T23:04:10.073Z,1.60
2019-03-02T23:06:42.531Z,1.50
2019-03-02T23:09:15.426Z,1.75
2019-03-02T23:11:49.468Z,1.90
2019-03-02T23:14:22.617Z,1.10
2019-03-02T23:16:52.795Z,1.65
2019-03-02T23:19:24.753Z,1.90
2019-03-02T23:21:59.011Z,1.80
2019-03-02T23:24:29.743Z,1.65
2019-03-02T23:27:00.311Z,2.12
2019-03-02T23:29:32.207Z,1.75
2019-03-02T23:32:02.443Z,1.60
2019-03-02T23:34:37.124Z,2.25
2019-03-02T23:37:06.278Z,2.20
2019-03-02T23:39:38.047Z,2.05
2019-03-02T23:42:08.576Z,1.30
2019-03-02T23:44:38.723Z,2.12
2019-03-02T23:47:09.862Z,2.10
2019-03-02T23:49:40.204Z,2.50
2019-03-02T23:52:13.177Z,2.20
2019-03-02T23:54:43.381Z,1.60
2019-03-02T23:57:13.591Z,1.70
2019-03-02T23:59:43.806Z,1.72
